createdAt,value
2018-08-03T00:00:23.634Z,25.90
2018-08-03T00:02:51.139Z,26.00
2018-08-03T00:07:45.860Z,25.90
2018-08-03T00:10:13.297Z,26.00
2018-08-03T00:12:40.745Z,26.00
2018-08-03T00:15:08.537Z,26.10
2018-08-03T00:17:36.172Z,26.10
2018-08-03T00:20:04.598Z,26.10
2018-08-03T00:22:32.045Z,26.00
2018-08-03T00:24:59.560Z,26.10
2018-08-03T00:27:28.018Z,26.00
2018-08-03T00:29:55.470Z,26.00
2018-08-03T00:32:22.912Z,26.00
2018-08-03T00:34:50.569Z,26.00
2018-08-03T00:37:18.001Z,26.00
2018-08-03T00:39:45.452Z,26.10
2018-08-03T00:42:12.894Z,26.00
2018-08-03T00:44:40.332Z,26.00
2018-08-03T00:47:07.790Z,26.10
2018-08-03T00:49:35.343Z,26.10
2018-08-03T00:52:02.771Z,26.10
2018-08-03T00:54:30.214Z,26.00
2018-08-03T00:56:57.660Z,26.00
2018-08-03T00:59:25.113Z,26.00
2018-08-03T01:01:52.576Z,26.00
2018-08-03T01:04:19.980Z,25.90
2018-08-03T01:06:47.384Z,26.00
2018-08-03T01:09:14.793Z,25.90
2018-08-03T01:11:42.262Z,25.90
2018-08-03T01:14:10.369Z,25.90
2018-08-03T01:19:27.330Z,25.80
2018-08-03T01:21:54.776Z,25.80
2018-08-03T01:24:22.198Z,25.80
2018-08-03T01:26:49.644Z,25.80
2018-08-03T01:29:17.055Z,25.80
2018-08-03T01:31:44.488Z,25.80
2018-08-03T01:34:11.896Z,25.90
2018-08-03T01:36:39.300Z,25.90
2018-08-03T01:39:07.312Z,25.90
2018-08-03T01:41:34.776Z,25.90
2018-08-03T01:44:02.299Z,25.90
2018-08-03T01:46:29.713Z,25.90
2018-08-03T01:48:57.127Z,25.80
2018-08-03T01:51:24.542Z,25.80
2018-08-03T01:53:51.937Z,25.70
2018-08-03T01:56:19.336Z,25.60
2018-08-03T01:58:46.749Z,25.50
2018-08-03T02:01:14.160Z,25.40
2018-08-03T02:03:41.593Z,25.40
2018-08-03T02:06:09.101Z,25.30
2018-08-03T02:08:36.516Z,25.20
2018-08-03T02:11:03.920Z,25.20
2018-08-03T02:13:31.344Z,25.20
2018-08-03T02:15:58.753Z,25.10
2018-08-03T02:18:26.209Z,25.10
2018-08-03T02:20:53.622Z,25.10
2018-08-03T02:25:48.296Z,25.10
2018-08-03T02:28:15.714Z,25.00
2018-08-03T02:30:43.137Z,25.00
2018-08-03T02:33:10.670Z,25.00
2018-08-03T02:35:38.120Z,25.10
2018-08-03T02:38:05.561Z,25.10
2018-08-03T02:40:33.046Z,25.00
2018-08-03T02:43:00.474Z,25.00
2018-08-03T02:45:27.905Z,25.10
2018-08-03T02:47:55.324Z,25.10
2018-08-03T02:50:22.764Z,25.10
2018-08-03T02:52:50.187Z,25.20
2018-08-03T02:55:17.609Z,25.20
2018-08-03T03:00:12.213Z,25.20
2018-08-03T03:02:39.626Z,25.20
2018-08-03T03:05:07.100Z,25.20
2018-08-03T03:07:34.525Z,25.30
2018-08-03T03:10:01.948Z,25.20
2018-08-03T03:12:29.588Z,25.10
2018-08-03T03:14:57.025Z,25.10
2018-08-03T03:17:24.460Z,25.10
2018-08-03T03:19:58.536Z,25.20
2018-08-03T03:22:25.974Z,25.20
2018-08-03T03:24:53.436Z,25.10
2018-08-03T03:27:20.967Z,25.10
2018-08-03T03:29:48.556Z,25.10
2018-08-03T03:32:16.173Z,25.10
2018-08-03T03:34:43.776Z,25.00
2018-08-03T03:37:11.387Z,25.00
2018-08-03T03:39:39.977Z,25.00
2018-08-03T03:42:07.420Z,24.90
2018-08-03T03:44:34.850Z,24.90
2018-08-03T03:47:02.468Z,24.90
2018-08-03T03:49:30.017Z,24.90
2018-08-03T03:51:57.491Z,24.90
2018-08-03T03:54:24.920Z,24.80
2018-08-03T03:56:52.365Z,24.80
2018-08-03T03:59:19.837Z,24.70
2018-08-03T04:01:47.221Z,24.70
2018-08-03T04:04:14.872Z,24.60
2018-08-03T04:06:42.289Z,24.50
2018-08-03T04:09:11.576Z,24.40
2018-08-03T04:11:39.032Z,24.20
2018-08-03T04:14:06.469Z,24.20
2018-08-03T04:16:34.364Z,24.20
2018-08-03T04:19:01.835Z,24.20
2018-08-03T04:21:29.256Z,24.20
2018-08-03T04:23:56.664Z,24.10
2018-08-03T04:26:24.222Z,24.00
2018-08-03T04:28:51.712Z,24.00
2018-08-03T04:31:19.168Z,24.10
2018-08-03T04:33:46.980Z,24.10
2018-08-03T04:36:14.405Z,24.20
2018-08-03T04:38:41.833Z,24.10
2018-08-03T04:41:09.252Z,24.10
2018-08-03T04:43:36.680Z,24.10
2018-08-03T04:46:04.119Z,24.10
2018-08-03T04:48:31.568Z,24.10
2018-08-03T04:50:59.001Z,24.20
2018-08-03T04:53:26.404Z,24.20
2018-08-03T04:55:53.825Z,24.30
2018-08-03T04:58:21.234Z,24.20
2018-08-03T05:00:48.653Z,24.30
2018-08-03T05:03:16.080Z,24.30
2018-08-03T05:05:43.530Z,24.30
2018-08-03T05:08:10.959Z,24.30
2018-08-03T05:10:38.380Z,24.30
2018-08-03T05:13:05.813Z,24.40
2018-08-03T05:15:33.313Z,24.50
2018-08-03T05:18:00.746Z,24.40
2018-08-03T05:20:28.176Z,24.40
2018-08-03T05:22:55.615Z,24.40
2018-08-03T05:27:50.666Z,24.40
2018-08-03T05:30:18.151Z,24.50
2018-08-03T05:32:45.573Z,24.60
2018-08-03T05:35:12.993Z,24.70
2018-08-03T05:37:40.680Z,24.90
2018-08-03T05:40:09.900Z,24.90
2018-08-03T05:42:37.530Z,25.00
2018-08-03T05:45:05.489Z,25.00
2018-08-03T05:47:33.096Z,25.00
2018-08-03T05:50:00.542Z,25.10
2018-08-03T05:52:28.218Z,25.20
2018-08-03T05:54:55.564Z,25.30
2018-08-03T05:57:22.986Z,25.40
2018-08-03T05:59:50.398Z,25.50
2018-08-03T06:02:17.900Z,25.60
2018-08-03T06:04:45.325Z,25.70
2018-08-03T06:07:12.936Z,25.70
2018-08-03T06:09:40.380Z,25.70
2018-08-03T06:12:07.787Z,25.80
2018-08-03T06:14:35.264Z,25.90
2018-08-03T06:19:29.909Z,26.00
2018-08-03T06:21:58.581Z,26.10
2018-08-03T06:24:26.003Z,26.30
2018-08-03T06:26:53.449Z,26.50
2018-08-03T06:29:20.893Z,26.70
2018-08-03T06:31:48.437Z,26.90
2018-08-03T06:34:15.968Z,27.00
2018-08-03T06:36:43.469Z,27.20
2018-08-03T06:39:11.583Z,27.30
2018-08-03T06:41:39.040Z,27.50
2018-08-03T06:46:33.868Z,27.70
2018-08-03T06:49:01.340Z,27.90
2018-08-03T06:51:28.764Z,28.00
2018-08-03T06:53:56.200Z,28.20
2018-08-03T06:56:23.711Z,28.20
2018-08-03T06:58:51.134Z,28.30
2018-08-03T07:01:18.551Z,28.50
2018-08-03T07:03:45.984Z,28.60
2018-08-03T07:06:13.593Z,28.80
2018-08-03T07:08:41.077Z,29.00
2018-08-03T07:11:08.557Z,29.20
2018-08-03T07:13:36.035Z,29.60
2018-08-03T07:16:03.480Z,29.70
2018-08-03T07:18:30.988Z,29.80
2018-08-03T07:20:58.405Z,29.80
2018-08-03T07:23:25.944Z,30.10
2018-08-03T07:25:53.462Z,30.20
2018-08-03T07:28:20.820Z,30.30
2018-08-03T07:33:15.752Z,30.60
2018-08-03T07:35:43.208Z,30.90
2018-08-03T07:38:10.697Z,31.20
2018-08-03T07:40:38.112Z,31.30
2018-08-03T07:43:05.785Z,31.50
2018-08-03T07:45:33.308Z,31.90
2018-08-03T07:48:00.934Z,31.80
2018-08-03T07:50:28.489Z,31.90
2018-08-03T07:52:55.901Z,31.80
2018-08-03T07:55:23.341Z,31.80
2018-08-03T07:57:50.757Z,31.80
2018-08-03T08:00:18.169Z,31.80
2018-08-03T08:02:45.781Z,32.10
2018-08-03T08:05:13.192Z,32.30
2018-08-03T08:07:40.725Z,32.60
2018-08-03T08:10:08.142Z,32.50
2018-08-03T08:12:35.588Z,32.90
2018-08-03T08:15:03.094Z,33.00
2018-08-03T08:17:30.512Z,33.00
2018-08-03T08:19:57.932Z,33.20
2018-08-03T08:22:26.387Z,33.50
2018-08-03T08:24:53.833Z,33.40
2018-08-03T08:27:21.269Z,33.90
2018-08-03T08:29:48.681Z,34.00
2018-08-03T08:32:16.140Z,34.30
2018-08-03T08:34:43.581Z,34.70
2018-08-03T08:37:12.186Z,35.00
2018-08-03T08:39:39.796Z,35.10
2018-08-03T08:42:07.417Z,34.60
2018-08-03T08:44:36.042Z,35.00
2018-08-03T08:47:03.622Z,35.30
2018-08-03T08:49:31.379Z,35.50
2018-08-03T08:51:58.765Z,35.70
2018-08-03T08:54:26.387Z,35.90
2018-08-03T08:56:53.796Z,36.20
2018-08-03T08:59:21.224Z,36.30
2018-08-03T09:01:48.872Z,36.40
2018-08-03T09:04:16.303Z,36.60
2018-08-03T09:06:43.929Z,36.90
2018-08-03T09:09:11.804Z,36.70
2018-08-03T09:11:39.564Z,36.50
2018-08-03T09:14:07.056Z,36.80
2018-08-03T09:16:34.617Z,36.90
2018-08-03T09:19:02.092Z,37.10
2018-08-03T09:21:29.546Z,37.10
2018-08-03T09:23:56.982Z,37.20
2018-08-03T09:26:24.400Z,37.50
2018-08-03T09:28:52.392Z,37.60
2018-08-03T09:31:19.828Z,37.30
2018-08-03T09:36:14.481Z,37.40
2018-08-03T09:38:41.899Z,37.20
2018-08-03T09:43:36.680Z,36.70
2018-08-03T09:46:04.296Z,36.80
2018-08-03T09:48:31.861Z,37.00
2018-08-03T09:50:59.277Z,37.10
2018-08-03T09:53:26.713Z,37.00
2018-08-03T09:55:54.166Z,37.20
2018-08-03T09:58:21.798Z,37.30
2018-08-03T10:00:54.884Z,37.10
2018-08-03T10:03:22.365Z,37.30
2018-08-03T10:05:49.812Z,37.60
2018-08-03T10:08:17.254Z,38.00
2018-08-03T10:10:44.672Z,38.30
2018-08-03T10:15:39.329Z,38.40
2018-08-03T10:18:06.740Z,38.40
2018-08-03T10:20:34.205Z,37.90
2018-08-03T10:23:01.814Z,37.30
2018-08-03T10:25:29.264Z,37.70
2018-08-03T10:27:56.698Z,37.90
2018-08-03T10:30:24.157Z,38.00
2018-08-03T10:32:51.745Z,38.00
2018-08-03T10:35:19.220Z,38.10
2018-08-03T10:37:47.058Z,37.70
2018-08-03T10:40:14.487Z,37.90
2018-08-03T10:42:42.099Z,38.10
2018-08-03T10:45:09.485Z,37.80
2018-08-03T10:47:36.908Z,38.10
2018-08-03T10:50:04.344Z,38.60
2018-08-03T10:52:31.931Z,38.80
2018-08-03T10:54:59.368Z,38.90
2018-08-03T10:57:26.796Z,38.90
2018-08-03T10:59:54.233Z,39.00
2018-08-03T11:02:21.657Z,39.20
2018-08-03T11:04:49.293Z,39.00
2018-08-03T11:07:17.573Z,39.20
2018-08-03T11:09:44.992Z,39.30
2018-08-03T11:12:12.425Z,39.50
2018-08-03T11:14:39.941Z,39.30
2018-08-03T11:17:07.348Z,39.00
2018-08-03T11:22:02.088Z,39.00
2018-08-03T11:24:29.513Z,38.90
2018-08-03T11:26:56.944Z,38.50
2018-08-03T11:29:24.468Z,38.60
2018-08-03T11:31:51.872Z,38.60
2018-08-03T11:34:19.296Z,38.10
2018-08-03T11:36:46.760Z,37.90
2018-08-03T11:39:14.241Z,37.40
2018-08-03T11:41:41.648Z,37.60
2018-08-03T11:44:09.072Z,37.70
2018-08-03T11:46:36.659Z,37.60
2018-08-03T11:49:04.104Z,37.90
2018-08-03T11:51:32.352Z,37.60
2018-08-03T11:53:59.904Z,37.40
2018-08-03T11:56:27.302Z,37.50
2018-08-03T11:58:55.950Z,37.60
2018-08-03T12:01:23.404Z,37.30
2018-08-03T12:03:50.953Z,37.20
2018-08-03T12:06:18.381Z,37.20
2018-08-03T12:08:45.985Z,37.20
2018-08-03T12:11:13.404Z,37.40
2018-08-03T12:13:40.844Z,37.30
2018-08-03T12:16:08.413Z,37.20
2018-08-03T12:18:35.841Z,37.20
2018-08-03T12:21:03.275Z,37.00
2018-08-03T12:23:31.824Z,36.70
2018-08-03T12:25:59.361Z,36.70
2018-08-03T12:28:39.565Z,36.70
2018-08-03T12:31:06.980Z,36.50
2018-08-03T12:33:34.392Z,36.60
2018-08-03T12:36:01.829Z,36.70
2018-08-03T12:38:29.244Z,36.80
2018-08-03T12:40:56.699Z,37.00
2018-08-03T12:43:24.191Z,36.70
2018-08-03T12:45:51.779Z,36.20
2018-08-03T12:48:25.286Z,36.30
2018-08-03T12:50:52.700Z,36.10
2018-08-03T12:53:20.124Z,35.80
2018-08-03T12:55:47.544Z,35.70
2018-08-03T12:58:15.039Z,35.70
2018-08-03T13:00:42.449Z,35.80
2018-08-03T13:03:09.959Z,35.70
2018-08-03T13:05:37.517Z,35.80
2018-08-03T13:08:05.162Z,35.80
2018-08-03T13:10:32.377Z,35.80
2018-08-03T13:12:59.796Z,35.80
2018-08-03T13:15:27.221Z,35.90
2018-08-03T13:17:54.870Z,35.80
2018-08-03T13:20:22.337Z,35.80
2018-08-03T13:22:49.768Z,36.10
2018-08-03T13:25:17.257Z,36.00
2018-08-03T13:27:44.856Z,35.80
2018-08-03T13:30:12.293Z,36.00
2018-08-03T13:32:39.707Z,36.10
2018-08-03T13:35:07.140Z,36.10
2018-08-03T13:37:34.666Z,36.10
2018-08-03T13:40:02.112Z,36.00
2018-08-03T13:42:29.542Z,36.00
2018-08-03T13:44:57.036Z,36.00
2018-08-03T13:47:24.466Z,35.90
2018-08-03T13:49:51.964Z,35.90
2018-08-03T13:52:19.399Z,36.00
2018-08-03T13:54:46.823Z,35.90
2018-08-03T13:57:14.326Z,35.90
2018-08-03T13:59:41.879Z,35.80
2018-08-03T14:02:25.204Z,35.80
2018-08-03T14:04:53.200Z,35.80
2018-08-03T14:07:20.641Z,35.90
2018-08-03T14:09:48.225Z,35.90
2018-08-03T14:12:15.706Z,35.90
2018-08-03T14:14:43.092Z,36.00
2018-08-03T14:17:11.029Z,36.00
2018-08-03T14:19:38.593Z,35.90
2018-08-03T14:22:06.294Z,35.90
2018-08-03T14:27:01.680Z,35.80
2018-08-03T14:29:29.195Z,35.90
2018-08-03T14:31:56.617Z,35.80
2018-08-03T14:34:24.033Z,35.90
2018-08-03T14:36:51.469Z,36.00
2018-08-03T14:39:19.003Z,35.90
2018-08-03T14:41:46.456Z,35.90
2018-08-03T14:44:13.945Z,35.80
2018-08-03T14:46:41.387Z,35.90
2018-08-03T14:49:08.848Z,35.90
2018-08-03T14:51:36.469Z,35.80
2018-08-03T14:54:04.020Z,35.70
2018-08-03T14:56:31.456Z,35.80
2018-08-03T14:59:07.025Z,35.80
2018-08-03T15:01:34.456Z,35.80
2018-08-03T15:04:01.881Z,35.90
2018-08-03T15:06:29.316Z,35.80
2018-08-03T15:08:57.008Z,35.80
2018-08-03T15:11:24.468Z,35.80
2018-08-03T15:13:52.154Z,35.70
2018-08-03T15:16:19.712Z,35.60
2018-08-03T15:18:47.265Z,35.60
2018-08-03T15:21:14.821Z,35.50
2018-08-03T15:23:42.274Z,35.50
2018-08-03T15:26:09.835Z,35.40
2018-08-03T15:28:37.261Z,35.40
2018-08-03T15:31:04.692Z,35.20
2018-08-03T15:33:32.180Z,35.20
2018-08-03T15:35:59.668Z,35.20
2018-08-03T15:38:27.087Z,35.20
2018-08-03T15:40:54.574Z,35.20
2018-08-03T15:43:21.973Z,35.10
2018-08-03T15:45:49.429Z,35.10
2018-08-03T15:48:16.926Z,34.90
2018-08-03T15:50:44.465Z,34.90
2018-08-03T15:53:13.686Z,34.90
2018-08-03T15:55:43.851Z,35.00
2018-08-03T15:58:11.308Z,34.80
2018-08-03T16:00:38.815Z,34.70
2018-08-03T16:03:06.285Z,34.90
2018-08-03T16:05:33.965Z,34.90
2018-08-03T16:08:01.426Z,34.90
2018-08-03T16:10:28.865Z,34.80
2018-08-03T16:12:56.346Z,34.90
2018-08-03T16:15:23.758Z,35.00
2018-08-03T16:17:51.589Z,35.00
2018-08-03T16:20:19.021Z,34.90
2018-08-03T16:22:46.462Z,34.80
2018-08-03T16:25:14.086Z,34.60
2018-08-03T16:27:41.684Z,34.60
2018-08-03T16:30:09.808Z,34.60
2018-08-03T16:32:37.468Z,34.60
2018-08-03T16:35:05.102Z,34.60
2018-08-03T16:37:32.748Z,34.60
2018-08-03T16:40:00.218Z,34.70
2018-08-03T16:42:27.704Z,34.70
2018-08-03T16:44:55.289Z,34.60
2018-08-03T16:47:22.725Z,34.70
2018-08-03T16:49:50.177Z,34.70
2018-08-03T16:54:44.813Z,34.70
2018-08-03T16:57:12.238Z,34.70
2018-08-03T16:59:39.705Z,34.80
2018-08-03T17:02:07.126Z,34.70
2018-08-03T17:04:34.589Z,34.60
2018-08-03T17:07:02.014Z,34.60
2018-08-03T17:09:29.481Z,34.50
2018-08-03T17:11:56.930Z,34.40
2018-08-03T17:14:26.519Z,34.20
2018-08-03T17:16:53.953Z,34.00
2018-08-03T17:19:21.381Z,33.90
2018-08-03T17:21:48.812Z,33.90
2018-08-03T17:24:16.238Z,33.80
2018-08-03T17:26:43.672Z,33.80
2018-08-03T17:29:11.156Z,33.80
2018-08-03T17:31:38.613Z,33.90
2018-08-03T17:34:06.076Z,33.90
2018-08-03T17:36:33.665Z,33.90
2018-08-03T17:39:01.262Z,33.90
2018-08-03T17:41:28.757Z,33.90
2018-08-03T17:43:56.189Z,33.90
2018-08-03T17:46:23.620Z,33.90
2018-08-03T17:51:18.281Z,34.00
2018-08-03T17:53:45.714Z,33.90
2018-08-03T17:56:13.153Z,33.80
2018-08-03T17:58:40.779Z,33.80
2018-08-03T18:01:08.209Z,33.80
2018-08-03T18:03:35.676Z,33.70
2018-08-03T18:06:03.229Z,33.70
2018-08-03T18:08:30.677Z,33.70
2018-08-03T18:10:58.530Z,33.60
2018-08-03T18:13:26.038Z,33.60
2018-08-03T18:15:53.596Z,33.50
2018-08-03T18:18:21.356Z,33.40
2018-08-03T18:20:48.781Z,33.30
2018-08-03T18:23:16.555Z,33.20
2018-08-03T18:25:43.979Z,33.00
2018-08-03T18:28:11.477Z,32.90
2018-08-03T18:30:38.942Z,32.80
2018-08-03T18:33:06.394Z,32.60
2018-08-03T18:35:33.809Z,32.50
2018-08-03T18:38:01.406Z,32.30
2018-08-03T18:40:29.047Z,32.20
2018-08-03T18:42:56.401Z,32.20
2018-08-03T18:45:23.829Z,32.10
2018-08-03T18:50:18.524Z,31.90
2018-08-03T18:52:45.949Z,31.70
2018-08-03T18:55:13.383Z,31.60
2018-08-03T18:57:40.857Z,31.50
2018-08-03T19:02:41.288Z,31.40
2018-08-03T19:05:09.744Z,31.20
2018-08-03T19:07:37.209Z,31.10
2018-08-03T19:10:04.704Z,31.10
2018-08-03T19:14:59.291Z,30.90
2018-08-03T19:17:26.762Z,30.80
2018-08-03T19:19:54.190Z,30.70
2018-08-03T19:22:21.621Z,30.60
2018-08-03T19:24:49.065Z,30.50
2018-08-03T19:27:16.497Z,30.50
2018-08-03T19:29:43.994Z,30.30
2018-08-03T19:32:11.420Z,30.20
2018-08-03T19:34:38.845Z,30.10
2018-08-03T19:37:06.292Z,30.10
2018-08-03T19:39:33.700Z,30.00
2018-08-03T19:42:01.136Z,29.90
2018-08-03T19:44:28.592Z,29.90
2018-08-03T19:46:56.043Z,29.70
2018-08-03T19:49:23.428Z,29.50
2018-08-03T19:51:50.862Z,29.50
2018-08-03T19:54:18.551Z,29.40
2018-08-03T19:56:46.235Z,29.20
2018-08-03T19:59:13.754Z,29.10
2018-08-03T20:01:41.128Z,29.00
2018-08-03T20:04:08.596Z,29.00
2018-08-03T20:06:36.470Z,28.90
2018-08-03T20:09:06.045Z,28.70
2018-08-03T20:11:33.503Z,28.60
2018-08-03T20:14:01.048Z,28.50
2018-08-03T20:16:28.649Z,28.50
2018-08-03T20:18:58.234Z,28.40
2018-08-03T20:21:26.811Z,28.30
2018-08-03T20:23:54.308Z,28.30
2018-08-03T20:26:21.742Z,28.30
2018-08-03T20:28:49.197Z,28.20
2018-08-03T20:31:16.832Z,28.20
2018-08-03T20:33:44.633Z,28.10
2018-08-03T20:36:12.299Z,28.00
2018-08-03T20:38:39.945Z,27.90
2018-08-03T20:41:07.380Z,27.80
2018-08-03T20:43:34.939Z,27.70
2018-08-03T20:46:02.417Z,27.70
2018-08-03T20:48:29.990Z,27.70
2018-08-03T20:53:24.685Z,27.50
2018-08-03T20:55:52.125Z,27.50
2018-08-03T20:58:19.609Z,27.50
2018-08-03T21:00:47.068Z,27.40
2018-08-03T21:05:41.948Z,27.30
2018-08-03T21:08:09.439Z,27.20
2018-08-03T21:10:37.078Z,27.20
2018-08-03T21:13:04.537Z,27.10
2018-08-03T21:15:31.979Z,27.00
2018-08-03T21:17:59.462Z,26.90
2018-08-03T21:20:26.916Z,26.80
2018-08-03T21:22:54.362Z,26.80
2018-08-03T21:25:21.827Z,26.80
2018-08-03T21:27:49.304Z,26.70
2018-08-03T21:30:16.749Z,26.70
2018-08-03T21:32:44.213Z,26.60
2018-08-03T21:35:11.648Z,26.60
2018-08-03T21:37:39.343Z,26.60
2018-08-03T21:40:06.772Z,26.60
2018-08-03T21:42:34.680Z,26.50
2018-08-03T21:45:02.137Z,26.30
2018-08-03T21:47:29.581Z,26.30
2018-08-03T21:49:57.033Z,26.20
2018-08-03T21:52:24.760Z,26.20
2018-08-03T21:54:52.606Z,26.10
2018-08-03T21:57:20.039Z,26.10
2018-08-03T21:59:47.471Z,26.00
2018-08-03T22:02:14.889Z,25.90
2018-08-03T22:04:42.341Z,25.90
2018-08-03T22:07:09.889Z,25.90
2018-08-03T22:09:37.360Z,25.80
2018-08-03T22:12:05.314Z,25.80
2018-08-03T22:14:32.902Z,25.80
2018-08-03T22:17:00.462Z,25.80
2018-08-03T22:19:28.175Z,25.80
2018-08-03T22:21:55.666Z,25.70
2018-08-03T22:24:23.167Z,25.60
2018-08-03T22:26:50.596Z,25.60
2018-08-03T22:29:18.053Z,25.60
2018-08-03T22:31:45.504Z,25.60
2018-08-03T22:34:12.956Z,25.70
2018-08-03T22:36:40.403Z,25.70
2018-08-03T22:39:08.136Z,25.70
2018-08-03T22:41:35.792Z,25.70
2018-08-03T22:46:30.842Z,25.70
2018-08-03T22:48:58.349Z,25.70
2018-08-03T22:51:25.795Z,25.80
2018-08-03T22:53:53.320Z,25.90
2018-08-03T22:56:20.746Z,26.00
2018-08-03T22:58:48.232Z,26.10
2018-08-03T23:01:15.717Z,26.20
2018-08-03T23:03:43.208Z,26.30
2018-08-03T23:06:10.682Z,26.30
2018-08-03T23:08:38.422Z,26.40
2018-08-03T23:11:05.848Z,26.30
2018-08-03T23:13:33.284Z,26.40
2018-08-03T23:16:00.744Z,26.40
2018-08-03T23:18:28.164Z,26.40
2018-08-03T23:20:55.654Z,26.30
2018-08-03T23:23:23.189Z,26.40
2018-08-03T23:25:50.609Z,26.30
2018-08-03T23:28:18.037Z,26.30
2018-08-03T23:30:45.533Z,26.30
2018-08-03T23:33:12.953Z,26.30
2018-08-03T23:35:40.440Z,26.20
2018-08-03T23:38:08.041Z,26.20
2018-08-03T23:40:35.537Z,26.20
2018-08-03T23:43:03.048Z,26.10
2018-08-03T23:45:30.503Z,26.10
2018-08-03T23:47:57.917Z,26.00
2018-08-03T23:50:25.353Z,26.00
2018-08-03T23:52:52.784Z,25.90
2018-08-03T23:55:20.233Z,25.90
2018-08-03T23:57:47.658Z,25.90
